createdAt,value
2023-01-13T00:02:14.486Z,10.57
2023-01-13T00:07:16.082Z,10.61
2023-01-13T00:12:17.654Z,10.62
2023-01-13T00:17:19.253Z,10.51
2023-01-13T00:22:20.842Z,10.47
2023-01-13T00:27:24.931Z,10.41
2023-01-13T00:32:26.813Z,10.37
2023-01-13T00:37:28.584Z,10.27
2023-01-13T00:42:48.385Z,10.14
2023-01-13T00:47:49.982Z,9.99
2023-01-13T00:52:51.593Z,9.80
2023-01-13T00:57:53.176Z,9.70
2023-01-13T01:02:54.795Z,9.65
2023-01-13T01:07:56.372Z,9.58
2023-01-13T01:12:57.964Z,9.64
2023-01-13T01:17:59.574Z,9.53
2023-01-13T01:23:01.186Z,9.48
2023-01-13T01:28:02.777Z,9.51
2023-01-13T01:33:05.300Z,9.57
2023-01-13T01:38:06.946Z,9.63
2023-01-13T01:43:34.681Z,9.73
2023-01-13T01:48:39.276Z,9.76
2023-01-13T01:53:41.805Z,9.89
2023-01-13T01:58:49.853Z,9.86
2023-01-13T02:03:59.669Z,9.90
2023-01-13T02:09:01.393Z,9.93
2023-01-13T02:14:02.992Z,10.02
2023-01-13T02:19:38.886Z,10.11
2023-01-13T02:24:59.262Z,10.21
2023-01-13T02:30:41.839Z,10.31
2023-01-13T02:35:51.809Z,10.27
2023-01-13T02:41:20.246Z,10.33
2023-01-13T02:46:28.774Z,10.43
2023-01-13T02:51:31.195Z,10.41
2023-01-13T02:56:37.412Z,10.41
2023-01-13T03:01:39.476Z,10.47
2023-01-13T03:07:00.699Z,10.47
2023-01-13T03:12:08.238Z,10.46
2023-01-13T03:17:42.398Z,10.52
2023-01-13T03:23:15.357Z,10.53
2023-01-13T03:28:25.597Z,10.64
2023-01-13T03:33:50.445Z,10.63
2023-01-13T03:38:54.647Z,10.66
2023-01-13T03:44:21.447Z,10.65
2023-01-13T03:49:27.280Z,10.60
2023-01-13T03:54:30.852Z,10.67
2023-01-13T03:59:36.384Z,10.68
2023-01-13T04:04:45.159Z,10.62
2023-01-13T04:09:51.714Z,10.66
2023-01-13T04:14:54.230Z,10.69
2023-01-13T04:19:55.817Z,10.64
2023-01-13T04:24:57.427Z,10.58
2023-01-13T04:29:59.071Z,10.65
2023-01-13T04:35:01.022Z,10.64
2023-01-13T04:40:02.679Z,10.60
2023-01-13T04:45:04.702Z,10.53
2023-01-13T04:50:06.593Z,10.59
2023-01-13T04:55:09.012Z,10.53
2023-01-13T05:00:12.940Z,10.60
2023-01-13T05:05:14.542Z,10.64
2023-01-13T05:10:16.538Z,10.66
2023-01-13T05:15:36.851Z,10.68
2023-01-13T05:20:38.551Z,10.62
2023-01-13T05:25:44.120Z,10.63
2023-01-13T05:30:49.838Z,10.68
2023-01-13T05:35:51.734Z,10.62
2023-01-13T05:41:12.112Z,10.69
2023-01-13T05:46:14.841Z,10.71
2023-01-13T05:51:16.580Z,10.66
2023-01-13T05:56:18.259Z,10.64
2023-01-13T06:01:20.000Z,10.67
2023-01-13T06:06:21.824Z,10.69
2023-01-13T06:11:23.457Z,10.61
2023-01-13T06:16:25.193Z,10.55
2023-01-13T06:21:26.817Z,10.56
2023-01-13T06:26:30.698Z,10.46
2023-01-13T06:31:36.565Z,10.38
2023-01-13T06:36:40.909Z,10.48
2023-01-13T06:42:01.072Z,10.63
2023-01-13T06:47:02.738Z,10.73
2023-01-13T06:52:05.218Z,10.73
2023-01-13T06:57:06.815Z,10.80
2023-01-13T07:02:08.585Z,10.81
2023-01-13T07:07:10.261Z,10.78
2023-01-13T07:12:12.271Z,10.81
2023-01-13T07:17:13.925Z,10.81
2023-01-13T07:22:15.550Z,10.83
2023-01-13T07:27:17.196Z,10.72
2023-01-13T07:32:19.167Z,10.68
2023-01-13T07:37:20.775Z,10.63
2023-01-13T07:42:40.793Z,10.57
2023-01-13T07:47:42.589Z,10.58
2023-01-13T07:52:44.230Z,10.64
2023-01-13T07:57:45.942Z,10.65
2023-01-13T08:02:47.629Z,10.62
2023-01-13T08:07:49.280Z,10.63
2023-01-13T08:13:09.251Z,10.57
2023-01-13T08:18:11.452Z,10.65
2023-01-13T08:23:13.159Z,10.70
2023-01-13T08:28:15.916Z,10.70
2023-01-13T08:33:17.674Z,10.68
2023-01-13T08:38:20.095Z,10.69
2023-01-13T08:43:21.813Z,10.81
2023-01-13T08:48:23.419Z,10.85
2023-01-13T08:53:25.016Z,10.95
2023-01-13T08:58:26.852Z,10.93
2023-01-13T09:03:28.517Z,10.95
2023-01-13T09:08:30.119Z,11.10
2023-01-13T09:13:31.821Z,11.20
2023-01-13T09:18:33.463Z,11.24
2023-01-13T09:23:35.116Z,10.97
2023-01-13T09:28:36.753Z,9.75
2023-01-13T09:33:57.147Z,8.73
2023-01-13T09:38:59.205Z,8.31
2023-01-13T09:44:01.874Z,8.05
2023-01-13T09:49:04.412Z,7.85
2023-01-13T09:54:16.524Z,7.83
2023-01-13T09:59:18.313Z,7.96
2023-01-13T10:04:20.129Z,8.01
2023-01-13T10:09:49.918Z,8.11
2023-01-13T10:14:55.833Z,8.19
2023-01-13T10:20:41.049Z,8.23
2023-01-13T10:25:58.093Z,8.26
2023-01-13T10:30:59.937Z,8.24
2023-01-13T10:36:15.276Z,8.28
2023-01-13T10:41:20.118Z,8.30
2023-01-13T10:46:21.810Z,8.42
2023-01-13T10:51:38.798Z,8.50
2023-01-13T10:56:42.365Z,8.52
2023-01-13T11:01:54.736Z,8.64
2023-01-13T11:06:56.983Z,8.81
2023-01-13T11:11:59.520Z,8.75
2023-01-13T11:17:24.897Z,8.64
2023-01-13T11:22:34.291Z,8.60
2023-01-13T11:27:41.751Z,8.57
2023-01-13T11:33:12.333Z,8.53
2023-01-13T11:38:52.338Z,8.77
2023-01-13T11:44:05.142Z,8.91
2023-01-13T11:49:07.017Z,8.79
2023-01-13T11:54:24.355Z,8.75
2023-01-13T11:59:38.101Z,8.76
2023-01-13T12:04:57.819Z,8.79
2023-01-13T12:10:13.204Z,8.78
2023-01-13T12:15:21.493Z,8.94
2023-01-13T12:20:38.196Z,9.03
2023-01-13T12:25:45.751Z,9.26
2023-01-13T12:30:54.551Z,9.33
2023-01-13T12:36:05.122Z,9.24
2023-01-13T12:41:10.386Z,9.22
2023-01-13T12:46:24.561Z,9.15
2023-01-13T12:51:34.216Z,9.11
2023-01-13T12:56:42.040Z,9.07
2023-01-13T13:01:45.310Z,9.25
2023-01-13T13:07:07.204Z,9.23
2023-01-13T13:12:59.918Z,9.20
2023-01-13T13:18:16.758Z,9.18
2023-01-13T13:23:33.470Z,9.12
2023-01-13T13:28:38.471Z,9.11
2023-01-13T13:33:52.885Z,9.13
2023-01-13T13:39:22.439Z,9.09
2023-01-13T13:44:49.655Z,9.13
2023-01-13T13:49:54.368Z,9.15
2023-01-13T13:54:59.695Z,9.16
2023-01-13T14:00:01.809Z,9.15
2023-01-13T14:05:18.152Z,9.16
2023-01-13T14:10:25.058Z,9.10
2023-01-13T14:15:35.132Z,9.02
2023-01-13T14:20:37.067Z,9.05
2023-01-13T14:25:47.390Z,9.07
2023-01-13T14:30:50.760Z,9.09
2023-01-13T14:36:04.717Z,9.05
2023-01-13T14:41:20.873Z,9.08
2023-01-13T14:46:25.143Z,9.00
2023-01-13T14:51:28.452Z,8.94
2023-01-13T14:56:53.831Z,8.94
2023-01-13T15:01:55.792Z,8.88
2023-01-13T15:06:58.135Z,8.85
2023-01-13T15:11:59.964Z,8.84
2023-01-13T15:17:01.612Z,8.46
2023-01-13T15:22:03.365Z,7.58
2023-01-13T15:27:18.905Z,7.02
2023-01-13T15:32:21.696Z,6.60
2023-01-13T15:37:25.545Z,6.35
2023-01-13T15:42:45.831Z,6.11
2023-01-13T15:47:48.286Z,5.86
2023-01-13T15:52:49.935Z,5.70
2023-01-13T15:57:51.618Z,5.66
2023-01-13T16:02:53.356Z,5.68
2023-01-13T16:07:55.034Z,5.61
2023-01-13T16:12:56.716Z,5.47
2023-01-13T16:18:01.015Z,5.54
2023-01-13T16:23:02.674Z,5.45
2023-01-13T16:28:04.322Z,5.57
2023-01-13T16:33:05.991Z,5.50
2023-01-13T16:38:14.044Z,5.41
2023-01-13T16:43:15.724Z,5.47
2023-01-13T16:48:20.106Z,6.03
2023-01-13T16:53:21.757Z,6.53
2023-01-13T16:58:23.429Z,6.72
2023-01-13T17:03:25.094Z,6.94
2023-01-13T17:08:26.903Z,6.72
2023-01-13T17:13:28.499Z,6.71
2023-01-13T17:18:30.215Z,6.87
2023-01-13T17:23:33.398Z,7.00
2023-01-13T17:28:35.094Z,7.16
2023-01-13T17:33:37.218Z,7.21
2023-01-13T17:38:38.835Z,7.19
2023-01-13T17:43:40.453Z,7.23
2023-01-13T17:48:42.043Z,7.21
2023-01-13T17:53:44.218Z,7.31
2023-01-13T17:58:46.772Z,7.43
2023-01-13T18:03:48.895Z,7.54
2023-01-13T18:08:50.875Z,7.55
2023-01-13T18:13:57.305Z,7.57
2023-01-13T18:19:19.845Z,7.40
2023-01-13T18:24:40.165Z,7.22
2023-01-13T18:29:41.785Z,7.15
2023-01-13T18:34:43.633Z,7.22
2023-01-13T18:39:45.311Z,7.41
2023-01-13T18:44:46.938Z,7.45
2023-01-13T18:49:48.915Z,7.58
2023-01-13T18:54:50.648Z,7.64
2023-01-13T18:59:52.524Z,7.67
2023-01-13T19:04:54.449Z,7.63
2023-01-13T19:09:56.180Z,7.80
2023-01-13T19:14:58.472Z,7.78
2023-01-13T19:20:00.117Z,7.86
2023-01-13T19:25:03.158Z,7.87
2023-01-13T19:30:06.014Z,7.79
2023-01-13T19:35:08.693Z,7.76
2023-01-13T19:40:10.920Z,7.79
2023-01-13T19:45:30.557Z,7.75
2023-01-13T19:50:36.278Z,7.73
2023-01-13T19:55:37.931Z,7.68
2023-01-13T20:00:46.996Z,7.64
2023-01-13T20:05:48.641Z,7.67
2023-01-13T20:10:50.271Z,7.71
2023-01-13T20:15:52.035Z,7.56
2023-01-13T20:20:53.774Z,7.54
2023-01-13T20:25:55.607Z,7.60
2023-01-13T20:30:57.216Z,7.54
2023-01-13T20:35:59.238Z,7.55
2023-01-13T20:41:21.849Z,7.66
2023-01-13T20:46:24.549Z,7.59
2023-01-13T20:51:26.253Z,7.49
2023-01-13T20:56:27.948Z,7.45
2023-01-13T21:01:30.198Z,7.36
2023-01-13T21:06:32.981Z,7.41
2023-01-13T21:11:53.777Z,7.26
2023-01-13T21:16:55.373Z,7.30
2023-01-13T21:21:57.309Z,7.25
2023-01-13T21:26:59.146Z,7.31
2023-01-13T21:32:00.852Z,7.41
2023-01-13T21:37:02.482Z,7.49
2023-01-13T21:42:23.057Z,7.58
2023-01-13T21:47:43.302Z,7.62
2023-01-13T21:52:45.750Z,7.61
2023-01-13T21:57:48.081Z,7.60
2023-01-13T22:02:50.445Z,7.51
2023-01-13T22:07:52.437Z,7.35
2023-01-13T22:12:55.655Z,7.21
2023-01-13T22:17:57.364Z,7.08
2023-01-13T22:22:59.337Z,7.08
2023-01-13T22:28:05.969Z,6.99
2023-01-13T22:33:07.542Z,7.01
2023-01-13T22:38:12.118Z,7.01
2023-01-13T22:43:14.229Z,6.93
2023-01-13T22:48:15.989Z,7.03
2023-01-13T22:53:18.083Z,7.05
2023-01-13T22:58:19.705Z,7.06
2023-01-13T23:03:22.129Z,7.22
2023-01-13T23:08:23.883Z,7.33
2023-01-13T23:13:25.508Z,7.36
2023-01-13T23:18:27.170Z,7.38
2023-01-13T23:23:28.792Z,7.37
2023-01-13T23:28:30.561Z,7.24
2023-01-13T23:33:32.334Z,7.12
2023-01-13T23:38:34.025Z,7.10
2023-01-13T23:43:35.910Z,7.04
2023-01-13T23:48:37.744Z,7.00
2023-01-13T23:53:44.925Z,6.92
2023-01-13T23:58:47.076Z,6.92
